sensor_id;sensor_type;location;lat;lon;timestamp;P1;durP1;ratioP1;P2;durP2;ratioP2
3875;SDS011;1953;51.222;6.624;2024-02-23T00:01:30;3.63;;;1.30;;
3875;SDS011;1953;51.222;6.624;2024-02-23T00:06:12;3.17;;;1.87;;
3875;SDS011;1953;51.222;6.624;2024-02-23T00:10:55;3.10;;;2.27;;
3875;SDS011;1953;51.222;6.624;2024-02-23T00:15:38;2.93;;;1.67;;
3875;SDS011;1953;51.222;6.624;2024-02-23T00:21:27;2.90;;;1.40;;
3875;SDS011;1953;51.222;6.624;2024-02-23T00:26:10;2.80;;;1.83;;
3875;SDS011;1953;51.222;6.624;2024-02-23T00:30:53;6.23;;;2.47;;
3875;SDS011;1953;51.222;6.624;2024-02-23T00:35:35;3.80;;;1.50;;
3875;SDS011;1953;51.222;6.624;2024-02-23T00:40:19;4.20;;;1.80;;
3875;SDS011;1953;51.222;6.624;2024-02-23T00:45:02;3.50;;;2.03;;
3875;SDS011;1953;51.222;6.624;2024-02-23T00:49:45;3.60;;;2.50;;
3875;SDS011;1953;51.222;6.624;2024-02-23T00:54:28;4.73;;;2.10;;
3875;SDS011;1953;51.222;6.624;2024-02-23T00:59:12;4.50;;;2.07;;
3875;SDS011;1953;51.222;6.624;2024-02-23T01:03:55;5.83;;;2.53;;
3875;SDS011;1953;51.222;6.624;2024-02-23T01:08:37;3.03;;;1.73;;
3875;SDS011;1953;51.222;6.624;2024-02-23T01:13:21;2.63;;;1.30;;
3875;SDS011;1953;51.222;6.624;2024-02-23T01:18:04;2.63;;;1.40;;
3875;SDS011;1953;51.222;6.624;2024-02-23T01:22:48;2.80;;;1.30;;
3875;SDS011;1953;51.222;6.624;2024-02-23T01:27:31;3.50;;;1.50;;
3875;SDS011;1953;51.222;6.624;2024-02-23T01:32:13;2.60;;;1.57;;
3875;SDS011;1953;51.222;6.624;2024-02-23T01:36:57;6.70;;;1.80;;
3875;SDS011;1953;51.222;6.624;2024-02-23T01:41:40;5.10;;;1.30;;
3875;SDS011;1953;51.222;6.624;2024-02-23T01:46:24;4.00;;;1.13;;
3875;SDS011;1953;51.222;6.624;2024-02-23T01:51:07;3.10;;;1.57;;
3875;SDS011;1953;51.222;6.624;2024-02-23T01:55:52;3.83;;;1.60;;
3875;SDS011;1953;51.222;6.624;2024-02-23T02:00:36;4.23;;;0.93;;
3875;SDS011;1953;51.222;6.624;2024-02-23T02:05:18;5.50;;;1.20;;
3875;SDS011;1953;51.222;6.624;2024-02-23T02:10:01;3.23;;;1.27;;
3875;SDS011;1953;51.222;6.624;2024-02-23T02:14:46;7.27;;;2.20;;
3875;SDS011;1953;51.222;6.624;2024-02-23T02:19:28;3.90;;;1.20;;
3875;SDS011;1953;51.222;6.624;2024-02-23T02:24:11;3.33;;;1.30;;
3875;SDS011;1953;51.222;6.624;2024-02-23T02:28:53;4.80;;;1.30;;
3875;SDS011;1953;51.222;6.624;2024-02-23T02:33:37;3.40;;;0.90;;
3875;SDS011;1953;51.222;6.624;2024-02-23T02:38:21;3.43;;;1.07;;
3875;SDS011;1953;51.222;6.624;2024-02-23T02:43:03;4.23;;;1.30;;
3875;SDS011;1953;51.222;6.624;2024-02-23T02:47:47;3.93;;;1.07;;
3875;SDS011;1953;51.222;6.624;2024-02-23T02:52:30;3.80;;;1.20;;
3875;SDS011;1953;51.222;6.624;2024-02-23T02:57:13;4.33;;;1.10;;
3875;SDS011;1953;51.222;6.624;2024-02-23T03:01:56;3.50;;;1.00;;
3875;SDS011;1953;51.222;6.624;2024-02-23T03:06:38;2.60;;;1.00;;
3875;SDS011;1953;51.222;6.624;2024-02-23T03:11:22;4.70;;;1.03;;
3875;SDS011;1953;51.222;6.624;2024-02-23T03:16:05;4.87;;;1.10;;
3875;SDS011;1953;51.222;6.624;2024-02-23T03:20:47;2.90;;;0.93;;
3875;SDS011;1953;51.222;6.624;2024-02-23T03:25:30;7.80;;;1.40;;
3875;SDS011;1953;51.222;6.624;2024-02-23T03:30:14;3.05;;;0.80;;
3875;SDS011;1953;51.222;6.624;2024-02-23T03:34:56;4.43;;;1.20;;
3875;SDS011;1953;51.222;6.624;2024-02-23T03:39:39;7.20;;;1.23;;
3875;SDS011;1953;51.222;6.624;2024-02-23T03:44:21;3.05;;;0.90;;
3875;SDS011;1953;51.222;6.624;2024-02-23T03:49:05;4.80;;;1.43;;
3875;SDS011;1953;51.222;6.624;2024-02-23T03:53:48;3.87;;;1.03;;
3875;SDS011;1953;51.222;6.624;2024-02-23T03:58:30;4.40;;;1.20;;
3875;SDS011;1953;51.222;6.624;2024-02-23T04:03:13;5.93;;;1.10;;
3875;SDS011;1953;51.222;6.624;2024-02-23T04:07:57;5.80;;;1.37;;
3875;SDS011;1953;51.222;6.624;2024-02-23T04:12:39;3.60;;;1.23;;
3875;SDS011;1953;51.222;6.624;2024-02-23T04:17:21;4.13;;;1.60;;
3875;SDS011;1953;51.222;6.624;2024-02-23T04:22:05;4.67;;;1.10;;
3875;SDS011;1953;51.222;6.624;2024-02-23T04:26:50;7.67;;;1.30;;
3875;SDS011;1953;51.222;6.624;2024-02-23T04:31:33;6.20;;;1.20;;
3875;SDS011;1953;51.222;6.624;2024-02-23T04:36:19;3.47;;;1.13;;
3875;SDS011;1953;51.222;6.624;2024-02-23T04:41:02;3.87;;;1.00;;
3875;SDS011;1953;51.222;6.624;2024-02-23T04:45:47;4.40;;;1.37;;
3875;SDS011;1953;51.222;6.624;2024-02-23T04:50:29;3.73;;;1.80;;
3875;SDS011;1953;51.222;6.624;2024-02-23T04:55:12;4.17;;;1.53;;
3875;SDS011;1953;51.222;6.624;2024-02-23T04:59:54;6.03;;;1.80;;
3875;SDS011;1953;51.222;6.624;2024-02-23T05:04:38;2.80;;;1.40;;
3875;SDS011;1953;51.222;6.624;2024-02-23T05:09:21;6.77;;;1.87;;
3875;SDS011;1953;51.222;6.624;2024-02-23T05:14:03;7.03;;;1.60;;
3875;SDS011;1953;51.222;6.624;2024-02-23T05:18:46;4.03;;;1.37;;
3875;SDS011;1953;51.222;6.624;2024-02-23T05:23:30;6.40;;;1.90;;
3875;SDS011;1953;51.222;6.624;2024-02-23T05:28:13;9.30;;;2.23;;
3875;SDS011;1953;51.222;6.624;2024-02-23T05:32:56;7.17;;;1.90;;
3875;SDS011;1953;51.222;6.624;2024-02-23T05:37:38;7.00;;;1.90;;
3875;SDS011;1953;51.222;6.624;2024-02-23T05:42:24;4.10;;;1.08;;
3875;SDS011;1953;51.222;6.624;2024-02-23T05:47:06;4.40;;;1.30;;
3875;SDS011;1953;51.222;6.624;2024-02-23T05:51:49;4.13;;;1.33;;
3875;SDS011;1953;51.222;6.624;2024-02-23T05:56:31;5.47;;;1.87;;
3875;SDS011;1953;51.222;6.624;2024-02-23T06:01:15;5.72;;;1.70;;
3875;SDS011;1953;51.222;6.624;2024-02-23T06:05:57;7.17;;;1.80;;
3875;SDS011;1953;51.222;6.624;2024-02-23T06:10:40;8.80;;;2.10;;
3875;SDS011;1953;51.222;6.624;2024-02-23T06:15:23;5.70;;;1.60;;
3875;SDS011;1953;51.222;6.624;2024-02-23T06:20:08;8.13;;;1.70;;
3875;SDS011;1953;51.222;6.624;2024-02-23T06:24:51;7.80;;;1.70;;
3875;SDS011;1953;51.222;6.624;2024-02-23T06:29:34;9.40;;;1.90;;
3875;SDS011;1953;51.222;6.624;2024-02-23T06:34:17;7.07;;;1.98;;
3875;SDS011;1953;51.222;6.624;2024-02-23T06:39:01;13.37;;;3.40;;
3875;SDS011;1953;51.222;6.624;2024-02-23T06:43:43;5.05;;;1.48;;
3875;SDS011;1953;51.222;6.624;2024-02-23T06:48:26;6.80;;;2.23;;
3875;SDS011;1953;51.222;6.624;2024-02-23T06:53:09;7.40;;;1.93;;
3875;SDS011;1953;51.222;6.624;2024-02-23T06:57:53;7.40;;;1.57;;
3875;SDS011;1953;51.222;6.624;2024-02-23T07:02:35;7.43;;;1.43;;
3875;SDS011;1953;51.222;6.624;2024-02-23T07:07:18;7.50;;;2.20;;
3875;SDS011;1953;51.222;6.624;2024-02-23T07:12:00;6.73;;;1.87;;
3875;SDS011;1953;51.222;6.624;2024-02-23T07:16:44;7.30;;;1.97;;
3875;SDS011;1953;51.222;6.624;2024-02-23T07:21:28;6.10;;;2.30;;
3875;SDS011;1953;51.222;6.624;2024-02-23T07:26:10;10.57;;;2.50;;
3875;SDS011;1953;51.222;6.624;2024-02-23T07:30:53;4.93;;;2.47;;
3875;SDS011;1953;51.222;6.624;2024-02-23T07:35:36;4.33;;;1.67;;
3875;SDS011;1953;51.222;6.624;2024-02-23T07:40:19;4.38;;;1.50;;
3875;SDS011;1953;51.222;6.624;2024-02-23T07:45:02;7.63;;;1.87;;
3875;SDS011;1953;51.222;6.624;2024-02-23T07:49:45;12.93;;;3.20;;
3875;SDS011;1953;51.222;6.624;2024-02-23T07:54:28;8.77;;;2.27;;
3875;SDS011;1953;51.222;6.624;2024-02-23T07:59:11;7.10;;;2.25;;
3875;SDS011;1953;51.222;6.624;2024-02-23T08:03:53;7.43;;;1.87;;
3875;SDS011;1953;51.222;6.624;2024-02-23T08:08:36;6.33;;;1.70;;
3875;SDS011;1953;51.222;6.624;2024-02-23T08:13:20;4.80;;;2.17;;
3875;SDS011;1953;51.222;6.624;2024-02-23T08:18:02;5.47;;;2.07;;
3875;SDS011;1953;51.222;6.624;2024-02-23T08:22:45;6.10;;;1.60;;
3875;SDS011;1953;51.222;6.624;2024-02-23T08:27:28;8.83;;;2.27;;
3875;SDS011;1953;51.222;6.624;2024-02-23T08:32:12;8.27;;;2.30;;
3875;SDS011;1953;51.222;6.624;2024-02-23T08:36:54;9.85;;;1.95;;
3875;SDS011;1953;51.222;6.624;2024-02-23T08:41:37;9.90;;;2.50;;
3875;SDS011;1953;51.222;6.624;2024-02-23T08:46:19;13.87;;;1.87;;
3875;SDS011;1953;51.222;6.624;2024-02-23T08:51:03;5.60;;;1.60;;
3875;SDS011;1953;51.222;6.624;2024-02-23T08:55:46;5.57;;;1.40;;
3875;SDS011;1953;51.222;6.624;2024-02-23T09:00:28;8.73;;;1.80;;
3875;SDS011;1953;51.222;6.624;2024-02-23T09:05:11;9.13;;;2.40;;
3875;SDS011;1953;51.222;6.624;2024-02-23T09:09:55;6.77;;;1.63;;
3875;SDS011;1953;51.222;6.624;2024-02-23T09:14:38;3.10;;;1.33;;
3875;SDS011;1953;51.222;6.624;2024-02-23T09:19:22;8.73;;;2.10;;
3875;SDS011;1953;51.222;6.624;2024-02-23T09:24:05;9.50;;;1.57;;
3875;SDS011;1953;51.222;6.624;2024-02-23T09:28:49;4.43;;;1.83;;
3875;SDS011;1953;51.222;6.624;2024-02-23T09:33:32;4.07;;;1.73;;
3875;SDS011;1953;51.222;6.624;2024-02-23T09:38:14;15.57;;;2.40;;
3875;SDS011;1953;51.222;6.624;2024-02-23T09:42:57;5.80;;;1.40;;
3875;SDS011;1953;51.222;6.624;2024-02-23T09:47:42;4.33;;;1.70;;
3875;SDS011;1953;51.222;6.624;2024-02-23T09:52:25;9.10;;;1.50;;
3875;SDS011;1953;51.222;6.624;2024-02-23T09:57:09;5.63;;;1.35;;
3875;SDS011;1953;51.222;6.624;2024-02-23T10:01:53;4.35;;;1.73;;
3875;SDS011;1953;51.222;6.624;2024-02-23T10:06:43;4.80;;;1.37;;
3875;SDS011;1953;51.222;6.624;2024-02-23T10:11:29;2.57;;;1.50;;
3875;SDS011;1953;51.222;6.624;2024-02-23T10:16:12;3.90;;;1.10;;
3875;SDS011;1953;51.222;6.624;2024-02-23T10:20:55;4.37;;;1.73;;
3875;SDS011;1953;51.222;6.624;2024-02-23T10:25:39;7.20;;;1.20;;
3875;SDS011;1953;51.222;6.624;2024-02-23T10:30:22;5.22;;;1.10;;
3875;SDS011;1953;51.222;6.624;2024-02-23T10:35:07;9.30;;;1.53;;
3875;SDS011;1953;51.222;6.624;2024-02-23T10:39:53;4.07;;;1.50;;
3875;SDS011;1953;51.222;6.624;2024-02-23T10:44:41;6.43;;;1.53;;
3875;SDS011;1953;51.222;6.624;2024-02-23T10:49:25;6.77;;;1.37;;
3875;SDS011;1953;51.222;6.624;2024-02-23T10:54:09;10.10;;;1.60;;
3875;SDS011;1953;51.222;6.624;2024-02-23T10:58:53;7.73;;;1.63;;
3875;SDS011;1953;51.222;6.624;2024-02-23T11:03:38;4.53;;;1.10;;
3875;SDS011;1953;51.222;6.624;2024-02-23T11:08:27;4.07;;;1.53;;
3875;SDS011;1953;51.222;6.624;2024-02-23T11:13:10;5.83;;;1.57;;
3875;SDS011;1953;51.222;6.624;2024-02-23T11:17:53;3.37;;;1.40;;
3875;SDS011;1953;51.222;6.624;2024-02-23T11:22:38;7.70;;;1.50;;
3875;SDS011;1953;51.222;6.624;2024-02-23T11:27:21;5.40;;;2.00;;
3875;SDS011;1953;51.222;6.624;2024-02-23T11:32:12;5.87;;;1.50;;
3875;SDS011;1953;51.222;6.624;2024-02-23T11:36:55;6.37;;;1.77;;
3875;SDS011;1953;51.222;6.624;2024-02-23T11:41:42;10.03;;;1.60;;
3875;SDS011;1953;51.222;6.624;2024-02-23T11:46:27;4.63;;;1.10;;
3875;SDS011;1953;51.222;6.624;2024-02-23T11:51:10;2.93;;;1.00;;
3875;SDS011;1953;51.222;6.624;2024-02-23T11:55:52;7.53;;;2.10;;
3875;SDS011;1953;51.222;6.624;2024-02-23T12:00:37;4.50;;;1.87;;
3875;SDS011;1953;51.222;6.624;2024-02-23T12:05:21;3.47;;;1.30;;
3875;SDS011;1953;51.222;6.624;2024-02-23T12:10:05;4.97;;;1.37;;
3875;SDS011;1953;51.222;6.624;2024-02-23T12:14:48;4.35;;;1.40;;
3875;SDS011;1953;51.222;6.624;2024-02-23T12:22:27;7.63;;;1.40;;
3875;SDS011;1953;51.222;6.624;2024-02-23T12:27:10;5.10;;;1.57;;
3875;SDS011;1953;51.222;6.624;2024-02-23T12:32:02;6.47;;;1.70;;
3875;SDS011;1953;51.222;6.624;2024-02-23T12:36:45;5.93;;;1.40;;
3875;SDS011;1953;51.222;6.624;2024-02-23T12:41:29;4.60;;;1.40;;
3875;SDS011;1953;51.222;6.624;2024-02-23T12:46:12;3.57;;;0.97;;
3875;SDS011;1953;51.222;6.624;2024-02-23T12:50:54;8.83;;;2.27;;
3875;SDS011;1953;51.222;6.624;2024-02-23T12:55:37;5.27;;;1.40;;
3875;SDS011;1953;51.222;6.624;2024-02-23T13:00:21;7.03;;;1.60;;
3875;SDS011;1953;51.222;6.624;2024-02-23T13:05:04;4.60;;;1.33;;
3875;SDS011;1953;51.222;6.624;2024-02-23T13:09:47;3.47;;;1.10;;
3875;SDS011;1953;51.222;6.624;2024-02-23T13:14:30;4.60;;;1.50;;
3875;SDS011;1953;51.222;6.624;2024-02-23T13:19:14;9.80;;;1.23;;
3875;SDS011;1953;51.222;6.624;2024-02-23T13:23:57;6.63;;;1.30;;
3875;SDS011;1953;51.222;6.624;2024-02-23T13:28:39;4.73;;;1.53;;
3875;SDS011;1953;51.222;6.624;2024-02-23T13:33:23;21.63;;;2.00;;
3875;SDS011;1953;51.222;6.624;2024-02-23T13:38:07;5.40;;;1.40;;
3875;SDS011;1953;51.222;6.624;2024-02-23T13:42:50;8.80;;;2.10;;
3875;SDS011;1953;51.222;6.624;2024-02-23T13:47:34;6.00;;;1.70;;
3875;SDS011;1953;51.222;6.624;2024-02-23T13:52:18;4.97;;;2.30;;
3875;SDS011;1953;51.222;6.624;2024-02-23T13:57:02;4.83;;;1.83;;
3875;SDS011;1953;51.222;6.624;2024-02-23T14:01:45;3.90;;;1.50;;
3875;SDS011;1953;51.222;6.624;2024-02-23T14:06:28;3.20;;;1.30;;
3875;SDS011;1953;51.222;6.624;2024-02-23T14:11:10;6.43;;;1.40;;
3875;SDS011;1953;51.222;6.624;2024-02-23T14:15:54;2.77;;;1.20;;
3875;SDS011;1953;51.222;6.624;2024-02-23T14:20:36;8.30;;;1.00;;
3875;SDS011;1953;51.222;6.624;2024-02-23T14:25:19;4.50;;;1.30;;
3875;SDS011;1953;51.222;6.624;2024-02-23T14:30:01;2.93;;;0.97;;
3875;SDS011;1953;51.222;6.624;2024-02-23T14:34:46;4.97;;;1.00;;
3875;SDS011;1953;51.222;6.624;2024-02-23T14:39:30;5.80;;;1.53;;
3875;SDS011;1953;51.222;6.624;2024-02-23T14:44:12;2.40;;;1.00;;
3875;SDS011;1953;51.222;6.624;2024-02-23T14:48:55;4.63;;;1.40;;
3875;SDS011;1953;51.222;6.624;2024-02-23T14:53:39;6.60;;;2.27;;
3875;SDS011;1953;51.222;6.624;2024-02-23T14:58:21;3.73;;;1.43;;
3875;SDS011;1953;51.222;6.624;2024-02-23T15:03:04;3.50;;;1.20;;
3875;SDS011;1953;51.222;6.624;2024-02-23T15:07:49;4.70;;;1.43;;
3875;SDS011;1953;51.222;6.624;2024-02-23T15:12:33;5.73;;;1.20;;
3875;SDS011;1953;51.222;6.624;2024-02-23T15:17:16;7.30;;;1.40;;
3875;SDS011;1953;51.222;6.624;2024-02-23T15:21:58;6.63;;;1.40;;
3875;SDS011;1953;51.222;6.624;2024-02-23T15:26:41;2.50;;;1.40;;
3875;SDS011;1953;51.222;6.624;2024-02-23T15:31:26;5.53;;;2.03;;
3875;SDS011;1953;51.222;6.624;2024-02-23T15:36:08;5.23;;;1.67;;
3875;SDS011;1953;51.222;6.624;2024-02-23T15:40:51;4.03;;;1.70;;
3875;SDS011;1953;51.222;6.624;2024-02-23T15:45:33;4.90;;;2.00;;
3875;SDS011;1953;51.222;6.624;2024-02-23T15:50:17;5.90;;;1.70;;
3875;SDS011;1953;51.222;6.624;2024-02-23T15:55:00;5.80;;;2.37;;
3875;SDS011;1953;51.222;6.624;2024-02-23T15:59:43;3.90;;;2.00;;
3875;SDS011;1953;51.222;6.624;2024-02-23T16:04:26;6.60;;;2.30;;
3875;SDS011;1953;51.222;6.624;2024-02-23T16:09:10;3.63;;;1.63;;
3875;SDS011;1953;51.222;6.624;2024-02-23T16:13:55;5.40;;;1.47;;
3875;SDS011;1953;51.222;6.624;2024-02-23T16:18:38;3.80;;;1.40;;
3875;SDS011;1953;51.222;6.624;2024-02-23T16:23:21;4.40;;;2.10;;
3875;SDS011;1953;51.222;6.624;2024-02-23T16:28:05;7.83;;;3.80;;
3875;SDS011;1953;51.222;6.624;2024-02-23T16:32:48;9.27;;;4.20;;
3875;SDS011;1953;51.222;6.624;2024-02-23T16:37:30;6.10;;;2.43;;
3875;SDS011;1953;51.222;6.624;2024-02-23T16:42:13;4.93;;;2.20;;
3875;SDS011;1953;51.222;6.624;2024-02-23T16:46:57;5.20;;;2.20;;
3875;SDS011;1953;51.222;6.624;2024-02-23T16:51:39;5.10;;;2.37;;
3875;SDS011;1953;51.222;6.624;2024-02-23T16:56:23;4.10;;;2.13;;
3875;SDS011;1953;51.222;6.624;2024-02-23T17:01:08;7.27;;;1.30;;
3875;SDS011;1953;51.222;6.624;2024-02-23T17:05:51;5.00;;;2.60;;
3875;SDS011;1953;51.222;6.624;2024-02-23T17:10:34;7.63;;;3.80;;
3875;SDS011;1953;51.222;6.624;2024-02-23T17:15:16;12.13;;;5.43;;
3875;SDS011;1953;51.222;6.624;2024-02-23T17:19:59;6.17;;;2.77;;
3875;SDS011;1953;51.222;6.624;2024-02-23T17:24:43;7.13;;;2.77;;
3875;SDS011;1953;51.222;6.624;2024-02-23T17:29:25;8.27;;;3.67;;
3875;SDS011;1953;51.222;6.624;2024-02-23T17:34:08;8.60;;;2.43;;
3875;SDS011;1953;51.222;6.624;2024-02-23T17:38:52;5.70;;;3.20;;
3875;SDS011;1953;51.222;6.624;2024-02-23T17:43:36;7.43;;;3.10;;
3875;SDS011;1953;51.222;6.624;2024-02-23T17:48:18;6.87;;;2.63;;
3875;SDS011;1953;51.222;6.624;2024-02-23T17:53:01;6.43;;;2.47;;
3875;SDS011;1953;51.222;6.624;2024-02-23T17:57:43;4.87;;;3.00;;
3875;SDS011;1953;51.222;6.624;2024-02-23T18:02:27;7.57;;;2.70;;
3875;SDS011;1953;51.222;6.624;2024-02-23T18:07:10;8.20;;;2.00;;
3875;SDS011;1953;51.222;6.624;2024-02-23T18:11:52;5.13;;;1.90;;
3875;SDS011;1953;51.222;6.624;2024-02-23T18:16:36;8.03;;;2.47;;
3875;SDS011;1953;51.222;6.624;2024-02-23T18:21:20;6.93;;;2.40;;
3875;SDS011;1953;51.222;6.624;2024-02-23T18:26:03;5.50;;;2.43;;
3875;SDS011;1953;51.222;6.624;2024-02-23T18:30:46;4.50;;;2.33;;
3875;SDS011;1953;51.222;6.624;2024-02-23T18:35:28;8.43;;;3.07;;
3875;SDS011;1953;51.222;6.624;2024-02-23T18:40:12;18.97;;;5.27;;
3875;SDS011;1953;51.222;6.624;2024-02-23T18:44:55;12.33;;;4.50;;
3875;SDS011;1953;51.222;6.624;2024-02-23T18:49:38;10.80;;;4.07;;
3875;SDS011;1953;51.222;6.624;2024-02-23T18:54:20;15.00;;;4.70;;
3875;SDS011;1953;51.222;6.624;2024-02-23T18:59:04;12.67;;;3.30;;
3875;SDS011;1953;51.222;6.624;2024-02-23T19:03:46;11.23;;;5.10;;
3875;SDS011;1953;51.222;6.624;2024-02-23T19:08:29;16.60;;;6.17;;
3875;SDS011;1953;51.222;6.624;2024-02-23T19:13:11;7.00;;;4.00;;
3875;SDS011;1953;51.222;6.624;2024-02-23T19:17:55;5.60;;;2.67;;
3875;SDS011;1953;51.222;6.624;2024-02-23T19:22:38;5.53;;;2.53;;
3875;SDS011;1953;51.222;6.624;2024-02-23T19:27:20;9.93;;;4.87;;
3875;SDS011;1953;51.222;6.624;2024-02-23T19:32:03;4.73;;;2.20;;
3875;SDS011;1953;51.222;6.624;2024-02-23T19:36:47;8.70;;;2.80;;
3875;SDS011;1953;51.222;6.624;2024-02-23T19:41:34;5.23;;;2.37;;
3875;SDS011;1953;51.222;6.624;2024-02-23T19:46:23;5.50;;;2.27;;
3875;SDS011;1953;51.222;6.624;2024-02-23T19:51:05;7.10;;;3.23;;
3875;SDS011;1953;51.222;6.624;2024-02-23T19:55:49;4.00;;;1.90;;
3875;SDS011;1953;51.222;6.624;2024-02-23T20:00:32;6.40;;;2.10;;
3875;SDS011;1953;51.222;6.624;2024-02-23T20:05:14;4.47;;;2.20;;
3875;SDS011;1953;51.222;6.624;2024-02-23T20:09:57;3.00;;;1.80;;
3875;SDS011;1953;51.222;6.624;2024-02-23T20:14:41;5.43;;;2.97;;
3875;SDS011;1953;51.222;6.624;2024-02-23T20:19:24;4.70;;;2.60;;
3875;SDS011;1953;51.222;6.624;2024-02-23T20:24:07;5.30;;;2.20;;
3875;SDS011;1953;51.222;6.624;2024-02-23T20:28:50;7.57;;;2.37;;
3875;SDS011;1953;51.222;6.624;2024-02-23T20:33:34;9.30;;;2.10;;
3875;SDS011;1953;51.222;6.624;2024-02-23T20:38:16;4.23;;;2.10;;
3875;SDS011;1953;51.222;6.624;2024-02-23T20:42:59;4.07;;;1.70;;
3875;SDS011;1953;51.222;6.624;2024-02-23T20:47:41;3.70;;;1.50;;
3875;SDS011;1953;51.222;6.624;2024-02-23T20:52:25;6.43;;;1.87;;
3875;SDS011;1953;51.222;6.624;2024-02-23T20:57:08;3.73;;;1.50;;
3875;SDS011;1953;51.222;6.624;2024-02-23T21:01:50;3.53;;;1.40;;
3875;SDS011;1953;51.222;6.624;2024-02-23T21:06:33;4.83;;;1.53;;
3875;SDS011;1953;51.222;6.624;2024-02-23T21:11:17;2.97;;;1.47;;
3875;SDS011;1953;51.222;6.624;2024-02-23T21:15:59;3.10;;;1.40;;
3875;SDS011;1953;51.222;6.624;2024-02-23T21:20:42;6.43;;;2.40;;
3875;SDS011;1953;51.222;6.624;2024-02-23T21:25:25;3.40;;;1.80;;
3875;SDS011;1953;51.222;6.624;2024-02-23T21:30:10;7.00;;;1.60;;
3875;SDS011;1953;51.222;6.624;2024-02-23T21:34:52;7.00;;;1.30;;
3875;SDS011;1953;51.222;6.624;2024-02-23T21:39:35;7.03;;;1.73;;
3875;SDS011;1953;51.222;6.624;2024-02-23T21:44:17;5.17;;;2.07;;
3875;SDS011;1953;51.222;6.624;2024-02-23T21:49:01;5.13;;;2.20;;
3875;SDS011;1953;51.222;6.624;2024-02-23T21:53:44;6.40;;;2.83;;
3875;SDS011;1953;51.222;6.624;2024-02-23T21:58:26;7.93;;;2.53;;
3875;SDS011;1953;51.222;6.624;2024-02-23T22:03:09;5.63;;;2.33;;
3875;SDS011;1953;51.222;6.624;2024-02-23T22:07:53;3.73;;;2.50;;
3875;SDS011;1953;51.222;6.624;2024-02-23T22:12:36;4.33;;;2.27;;
3875;SDS011;1953;51.222;6.624;2024-02-23T22:17:18;4.10;;;2.00;;
3875;SDS011;1953;51.222;6.624;2024-02-23T22:22:01;5.33;;;2.43;;
3875;SDS011;1953;51.222;6.624;2024-02-23T22:26:45;6.23;;;2.10;;
3875;SDS011;1953;51.222;6.624;2024-02-23T22:31:27;3.53;;;1.93;;
3875;SDS011;1953;51.222;6.624;2024-02-23T22:36:10;5.57;;;1.90;;
3875;SDS011;1953;51.222;6.624;2024-02-23T22:40:52;5.50;;;2.40;;
3875;SDS011;1953;51.222;6.624;2024-02-23T22:45:36;4.07;;;2.00;;
3875;SDS011;1953;51.222;6.624;2024-02-23T22:50:19;6.03;;;2.60;;
3875;SDS011;1953;51.222;6.624;2024-02-23T22:55:02;5.80;;;2.30;;
3875;SDS011;1953;51.222;6.624;2024-02-23T22:59:46;5.07;;;2.60;;
3875;SDS011;1953;51.222;6.624;2024-02-23T23:04:30;5.70;;;2.33;;
3875;SDS011;1953;51.222;6.624;2024-02-23T23:09:12;4.40;;;2.50;;
3875;SDS011;1953;51.222;6.624;2024-02-23T23:13:55;3.37;;;2.00;;
3875;SDS011;1953;51.222;6.624;2024-02-23T23:18:38;5.17;;;2.33;;
3875;SDS011;1953;51.222;6.624;2024-02-23T23:23:22;3.17;;;1.80;;
3875;SDS011;1953;51.222;6.624;2024-02-23T23:28:05;3.47;;;1.70;;
3875;SDS011;1953;51.222;6.624;2024-02-23T23:32:47;6.10;;;2.07;;
3875;SDS011;1953;51.222;6.624;2024-02-23T23:37:30;4.10;;;2.20;;
3875;SDS011;1953;51.222;6.624;2024-02-23T23:42:13;4.70;;;2.47;;
3875;SDS011;1953;51.222;6.624;2024-02-23T23:46:56;4.30;;;2.57;;
3875;SDS011;1953;51.222;6.624;2024-02-23T23:51:38;4.63;;;2.10;;
3875;SDS011;1953;51.222;6.624;2024-02-23T23:56:21;4.50;;;2.17;;
